Time;durP1;ratioP1;P1;durP2;ratioP2;P2;SDS_P1;SDS_P2;PMS_P1;PMS_P2;Temp;Humidity;BMP_temperature;BMP_pressure;BME280_temperature;BME280_humidity;BME280_pressure;Samples;Min_cycle;Max_cycle;Signal;HPM_P1;HPM_P2
2023/06/10 00:01:57;;;;;;;11.88;7.00;;;;;;;22.50;53.72;101200.00;4980521;28;20054;-84
2023/06/10 00:04:23;;;;;;;8.10;6.73;;;;;;;22.47;52.99;101195.88;4980651;28;20092;-84
2023/06/10 00:06:49;;;;;;;12.65;7.25;;;;;;;22.43;53.73;101194.81;4996150;28;20391;-84
2023/06/10 00:09:15;;;;;;;8.33;6.73;;;;;;;22.37;53.92;101195.97;4995916;28;20030;-83
2023/06/10 00:11:42;;;;;;;9.32;7.05;;;;;;;22.33;54.10;101197.63;4996231;28;20041;-83
2023/06/10 00:14:07;;;;;;;7.57;6.72;;;;;;;22.33;54.28;101194.88;4997465;28;20066;-83
2023/06/10 00:16:34;;;;;;;10.15;6.90;;;;;;;22.31;54.67;101197.06;4996399;28;20038;-84
2023/06/10 00:19:03;;;;;;;7.63;6.90;;;;;;;22.28;54.44;101192.09;4995980;28;20490;-83
2023/06/10 00:21:40;;;;;;;7.97;7.18;;;;;;;22.23;53.69;101201.25;4996264;28;20418;-83
2023/06/10 00:24:11;;;;;;;9.40;6.90;;;;;;;22.23;53.93;101204.84;4996864;28;20047;-83
2023/06/10 00:26:41;;;;;;;7.80;7.00;;;;;;;22.17;54.81;101200.44;4996282;28;20030;-83
2023/06/10 00:29:07;;;;;;;9.40;6.93;;;;;;;22.18;54.25;101202.09;4996140;28;20026;-84
2023/06/10 00:31:34;;;;;;;8.17;7.10;;;;;;;22.14;54.40;101200.22;4997075;28;20038;-83
2023/06/10 00:34:00;;;;;;;12.70;7.20;;;;;;;22.05;54.43;101195.25;4996562;28;20030;-83
2023/06/10 00:36:26;;;;;;;8.15;7.35;;;;;;;22.02;54.89;101197.78;4996816;28;20030;-83
2023/06/10 00:38:51;;;;;;;11.73;6.67;;;;;;;21.98;55.55;101204.97;4979553;28;20038;-83
2023/06/10 00:41:17;;;;;;;10.07;7.10;;;;;;;21.92;55.53;101198.66;4996229;28;20371;-83
2023/06/10 00:43:43;;;;;;;14.20;7.30;;;;;;;21.88;55.97;101197.59;4996277;28;20371;-83
2023/06/10 00:46:09;;;;;;;8.57;7.00;;;;;;;21.87;55.87;101204.22;4995415;28;20471;-83
2023/06/10 00:48:35;;;;;;;8.10;6.67;;;;;;;21.83;56.19;101201.16;4979459;28;20026;-84
2023/06/10 00:51:01;;;;;;;9.95;7.30;;;;;;;21.77;55.98;101204.25;4995272;28;20061;-84
2023/06/10 00:53:27;;;;;;;9.70;6.60;;;;;;;21.71;56.04;101208.97;4979252;28;20088;-84
2023/06/10 00:55:53;;;;;;;11.75;7.13;;;;;;;21.64;56.75;101212.03;4979372;28;20027;-83
2023/06/10 00:58:19;;;;;;;8.37;7.10;;;;;;;21.59;56.47;101202.94;4995583;28;20026;-83
2023/06/10 01:00:45;;;;;;;12.53;7.50;;;;;;;21.46;57.08;101201.56;4995306;28;20838;-83
2023/06/10 01:03:11;;;;;;;7.93;7.13;;;;;;;21.40;57.38;101197.16;4979450;28;20487;-83
2023/06/10 01:05:38;;;;;;;10.57;7.50;;;;;;;21.27;57.31;101193.88;4994966;28;20023;-83
2023/06/10 01:08:46;;;;;;;9.82;7.03;;;;;;;21.25;56.41;101201.59;4978686;28;20050;-83
2023/06/10 01:11:20;;;;;;;9.10;7.38;;;;;;;21.22;57.58;101199.41;4988571;28;20038;-84
2023/06/10 01:13:51;;;;;;;12.80;7.70;;;;;;;21.17;58.04;101200.25;4996158;28;20030;-84
2023/06/10 01:16:18;;;;;;;9.07;7.57;;;;;;;21.14;57.94;101197.19;4996418;28;20514;-84
2023/06/10 01:18:44;;;;;;;8.03;7.20;;;;;;;21.08;58.43;101203.84;4996228;28;20061;-84
2023/06/10 01:21:18;;;;;;;8.18;7.40;;;;;;;20.99;57.82;101207.16;4979617;28;20486;-84
2023/06/10 01:23:43;;;;;;;9.38;7.07;;;;;;;20.95;58.26;101206.06;4995267;28;20455;-83
2023/06/10 01:26:11;;;;;;;8.07;7.20;;;;;;;20.91;58.56;101206.91;4979246;28;20050;-84
2023/06/10 01:28:45;;;;;;;11.10;7.65;;;;;;;20.88;58.47;101208.25;4994659;28;20085;-83
2023/06/10 01:31:33;;;;;;;11.23;7.93;;;;;;;20.81;58.16;101205.78;4995070;28;20038;-83
2023/06/10 01:34:02;;;;;;;10.05;7.80;;;;;;;20.73;59.36;101213.75;4995048;28;20383;-83
2023/06/10 01:36:28;;;;;;;10.10;7.70;;;;;;;20.68;59.69;101211.84;4994616;28;20041;-83
2023/06/10 01:38:56;;;;;;;9.05;7.15;;;;;;;20.58;60.75;101215.41;4994628;28;20030;-83
2023/06/10 01:41:22;;;;;;;10.02;7.45;;;;;;;20.49;60.13;101215.09;4994579;28;20068;-83
2023/06/10 01:43:48;;;;;;;8.30;7.50;;;;;;;20.41;60.14;101207.38;4977261;28;20043;-84
2023/06/10 01:46:14;;;;;;;8.85;7.95;;;;;;;20.35;60.13;101210.41;4994666;28;20038;-83
2023/06/10 01:48:42;;;;;;;8.60;7.60;;;;;;;20.29;60.19;101209.56;4994112;28;20034;-83
2023/06/10 01:51:07;;;;;;;14.00;7.72;;;;;;;20.24;60.33;101215.03;4994216;28;20042;-83
2023/06/10 01:53:32;;;;;;;9.23;8.33;;;;;;;20.16;60.81;101208.97;4978346;28;20042;-83
2023/06/10 01:55:58;;;;;;;9.57;8.57;;;;;;;20.09;61.41;101205.66;4977952;28;20077;-83
2023/06/10 01:58:23;;;;;;;8.93;8.00;;;;;;;20.01;62.07;101214.44;4994322;28;20085;-84
2023/06/10 02:00:49;;;;;;;10.73;8.60;;;;;;;19.97;62.20;101205.03;4978021;28;20034;-84
2023/06/10 02:03:14;;;;;;;10.03;8.67;;;;;;;19.90;62.62;101218.22;4993904;28;20022;-83
2023/06/10 02:05:40;;;;;;;11.33;8.93;;;;;;;19.86;63.14;101219.88;4993848;28;20026;-84
2023/06/10 02:08:05;;;;;;;9.07;8.17;;;;;;;19.81;63.80;101223.44;4993962;28;20398;-83
2023/06/10 02:10:31;;;;;;;13.27;9.40;;;;;;;19.77;63.36;101225.88;4962126;28;20285;-83
2023/06/10 02:12:57;;;;;;;11.87;8.60;;;;;;;19.71;63.38;101228.84;4993971;28;20038;-83
2023/06/10 02:15:22;;;;;;;11.15;8.70;;;;;;;19.64;64.01;101224.41;4961685;28;20057;-84
2023/06/10 02:17:50;;;;;;;9.70;8.73;;;;;;;19.56;63.78;101219.44;4977691;28;20117;-83
2023/06/10 02:20:16;;;;;;;10.38;8.80;;;;;;;19.52;64.57;101223.81;4978783;28;20096;-83
2023/06/10 02:22:41;;;;;;;11.47;8.67;;;;;;;19.49;64.51;101229.00;4977672;28;20390;-83
2023/06/10 02:25:07;;;;;;;9.98;8.85;;;;;;;19.43;64.33;101223.47;4995568;28;20042;-84
2023/06/10 02:27:33;;;;;;;11.57;9.05;;;;;;;19.38;64.58;101230.88;4961868;28;20030;-83
2023/06/10 02:29:58;;;;;;;13.07;9.60;;;;;;;19.29;64.88;101230.53;4977533;28;20092;-83
2023/06/10 02:32:25;;;;;;;12.40;9.67;;;;;;;19.21;65.71;101231.03;4993769;28;20088;-83
2023/06/10 02:34:50;;;;;;;10.20;9.15;;;;;;;19.17;66.26;101230.72;4994138;28;20045;-83
2023/06/10 02:37:16;;;;;;;11.47;9.20;;;;;;;19.16;66.09;101231.00;4977694;28;20475;-83
2023/06/10 02:39:42;;;;;;;11.13;9.25;;;;;;;19.13;65.93;101232.34;4993019;28;20061;-83
2023/06/10 02:42:10;;;;;;;18.27;9.93;;;;;;;19.08;65.95;101227.63;4993684;28;20092;-83
2023/06/10 02:44:36;;;;;;;12.70;9.32;;;;;;;19.04;66.54;101240.25;4977898;28;20466;-83
2023/06/10 02:47:01;;;;;;;15.77;10.23;;;;;;;18.98;67.11;101233.06;4993045;28;20137;-83
2023/06/10 02:49:30;;;;;;;13.43;9.23;;;;;;;18.93;67.39;101236.59;4961165;28;20041;-83
2023/06/10 02:51:56;;;;;;;12.32;9.48;;;;;;;18.87;67.36;101237.66;4977536;28;20030;-83
2023/06/10 02:54:22;;;;;;;11.77;10.02;;;;;;;18.84;67.66;101231.78;4993323;28;20467;-83
2023/06/10 02:56:48;;;;;;;16.40;10.05;;;;;;;18.79;68.08;101232.59;4976931;28;20045;-83
2023/06/10 02:59:13;;;;;;;11.73;9.97;;;;;;;18.76;67.90;101233.97;4994652;28;20034;-83
2023/06/10 03:01:39;;;;;;;14.80;10.07;;;;;;;18.72;68.59;101227.31;4992922;28;20427;-83
2023/06/10 03:04:08;;;;;;;13.40;10.50;;;;;;;18.65;69.13;101240.44;4961541;28;20125;-83
2023/06/10 03:06:35;;;;;;;15.57;10.60;;;;;;;18.63;70.06;101241.78;4992883;28;20035;-83
2023/06/10 03:09:01;;;;;;;12.85;10.52;;;;;;;18.59;69.51;101236.81;4992842;28;20068;-83
2023/06/10 03:11:27;;;;;;;12.65;10.55;;;;;;;18.56;69.89;101234.59;4993082;28;20039;-83
2023/06/10 03:13:55;;;;;;;12.83;11.13;;;;;;;18.52;70.17;101238.94;4993307;28;20037;-84
2023/06/10 03:16:21;;;;;;;13.63;10.88;;;;;;;18.51;71.23;101236.44;4977184;28;20035;-83
2023/06/10 03:18:46;;;;;;;13.63;11.00;;;;;;;18.47;71.57;101240.78;4993742;28;20030;-83
2023/06/10 03:21:12;;;;;;;15.57;11.30;;;;;;;18.41;71.56;101234.44;4993150;28;20446;-83
2023/06/10 03:23:37;;;;;;;13.05;10.70;;;;;;;18.43;71.34;101242.44;4992987;28;20121;-83
2023/06/10 03:26:04;;;;;;;12.73;10.60;;;;;;;18.43;71.43;101250.66;4976536;28;20125;-83
2023/06/10 03:28:30;;;;;;;14.10;11.48;;;;;;;18.36;71.63;101237.94;4994215;28;20383;-83
2023/06/10 03:30:56;;;;;;;15.90;11.32;;;;;;;18.34;72.07;101248.38;4977038;28;20034;-83
2023/06/10 03:33:21;;;;;;;18.60;11.10;;;;;;;18.34;71.91;101245.63;4960950;28;20360;-83
2023/06/10 03:35:47;;;;;;;11.70;10.50;;;;;;;18.34;72.32;101255.78;4993433;28;20026;-83
2023/06/10 03:38:12;;;;;;;16.15;10.90;;;;;;;18.31;72.13;101251.63;4992733;28;20467;-83
2023/06/10 03:40:38;;;;;;;11.83;10.63;;;;;;;18.35;72.49;101257.44;4976706;28;20026;-83
2023/06/10 03:43:03;;;;;;;17.20;10.97;;;;;;;18.35;72.43;101265.66;4977208;28;20031;-83
2023/06/10 03:45:29;;;;;;;18.17;11.80;;;;;;;18.35;72.28;101257.44;4992820;28;20022;-83
2023/06/10 03:47:55;;;;;;;15.73;11.00;;;;;;;18.32;73.14;101261.53;4976646;28;20129;-83
2023/06/10 03:50:23;;;;;;;14.27;11.40;;;;;;;18.33;73.33;101265.94;4994074;28;20038;-83
2023/06/10 03:52:48;;;;;;;13.13;10.80;;;;;;;18.31;72.99;101259.88;4992751;28;20045;-83
2023/06/10 03:55:14;;;;;;;17.65;11.07;;;;;;;18.33;73.51;101263.19;4960238;28;20038;-83
2023/06/10 03:57:39;;;;;;;15.03;11.03;;;;;;;18.36;74.14;101262.66;4993099;28;20113;-83
2023/06/10 04:00:11;;;;;;;15.00;11.70;;;;;;;18.35;73.73;101261.03;4992646;28;20485;-83
2023/06/10 04:02:36;;;;;;;15.15;11.35;;;;;;;18.35;74.04;101263.78;4977628;28;20510;-83
2023/06/10 04:05:02;;;;;;;16.40;11.60;;;;;;;18.35;74.12;101261.03;4992488;28;20066;-83
2023/06/10 04:07:28;;;;;;;14.70;12.23;;;;;;;18.36;73.75;101262.66;4994701;28;20059;-83
2023/06/10 04:09:53;;;;;;;17.30;12.23;;;;;;;18.39;74.90;101264.91;4980374;28;20035;-83
2023/06/10 04:12:19;;;;;;;14.30;12.57;;;;;;;18.42;74.13;101260.81;4997782;28;20462;-83
2023/06/10 04:14:44;;;;;;;15.13;12.40;;;;;;;18.42;74.27;101269.03;4980563;28;20023;-83
2023/06/10 04:17:10;;;;;;;17.23;11.93;;;;;;;18.43;75.01;101267.97;4979947;28;20478;-84
2023/06/10 04:19:35;;;;;;;15.20;12.30;;;;;;;18.47;74.07;101268.25;4997762;28;20305;-83
2023/06/10 04:22:02;;;;;;;15.10;12.50;;;;;;;18.48;74.52;101273.50;4995785;28;20038;-83
2023/06/10 04:24:27;;;;;;;14.18;12.10;;;;;;;18.48;74.05;101275.44;4996712;28;20026;-83
2023/06/10 04:26:53;;;;;;;13.43;12.03;;;;;;;18.47;74.36;101271.00;4979530;28;20057;-83
2023/06/10 04:29:21;;;;;;;14.93;12.93;;;;;;;18.49;74.48;101277.91;4996285;28;20030;-83
2023/06/10 04:31:47;;;;;;;14.40;11.88;;;;;;;18.53;74.74;101281.00;4963681;28;20038;-83
2023/06/10 04:34:13;;;;;;;15.03;12.40;;;;;;;18.53;74.91;101281.00;4997115;28;20077;-83
2023/06/10 04:36:38;;;;;;;15.48;11.73;;;;;;;18.56;74.20;101284.03;4995974;28;20100;-83
2023/06/10 04:39:05;;;;;;;18.23;12.13;;;;;;;18.60;74.07;101284.34;4995700;28;20487;-83
2023/06/10 04:41:33;;;;;;;17.55;12.68;;;;;;;18.60;74.03;101284.34;4995813;28;20031;-84
2023/06/10 04:43:58;;;;;;;15.73;12.02;;;;;;;18.63;74.69;101283.84;4995702;28;20038;-83
2023/06/10 04:46:31;;;;;;;14.37;12.33;;;;;;;18.65;73.89;101286.34;4979885;28;20606;-83
2023/06/10 04:48:57;;;;;;;14.85;12.13;;;;;;;18.67;74.89;101293.22;4995299;28;20038;-83
2023/06/10 04:51:22;;;;;;;13.87;11.53;;;;;;;18.72;73.85;101287.78;4997338;28;20037;-83
2023/06/10 04:53:47;;;;;;;16.53;12.13;;;;;;;18.72;73.71;101287.78;4979797;28;20041;-83
2023/06/10 04:56:14;;;;;;;16.13;12.23;;;;;;;18.73;73.40;101292.19;4979279;28;20036;-84
2023/06/10 04:58:39;;;;;;;14.67;12.17;;;;;;;18.78;73.95;101285.91;4996628;28;20030;-84
2023/06/10 05:01:05;;;;;;;15.17;11.67;;;;;;;18.82;73.94;101286.22;4963139;28;20034;-83
2023/06/10 05:03:30;;;;;;;15.33;12.03;;;;;;;18.88;73.88;101287.94;4979649;28;20289;-84
2023/06/10 05:05:56;;;;;;;17.10;11.73;;;;;;;18.90;72.93;101294.03;4962949;28;20125;-84
2023/06/10 05:08:21;;;;;;;15.20;12.07;;;;;;;18.93;73.60;101294.34;4994761;28;20061;-83
2023/06/10 05:10:47;;;;;;;15.13;12.60;;;;;;;18.93;73.17;101288.84;4979034;28;20105;-84
2023/06/10 05:13:12;;;;;;;15.55;11.43;;;;;;;18.99;73.12;101294.41;4995681;28;20125;-83
2023/06/10 05:15:37;;;;;;;15.40;11.67;;;;;;;19.04;72.13;101291.69;4995069;28;20379;-84
2023/06/10 05:18:03;;;;;;;15.53;11.80;;;;;;;19.07;72.34;101289.25;4978689;28;20037;-83
2023/06/10 05:20:29;;;;;;;14.68;10.95;;;;;;;19.14;72.33;101293.69;4978831;28;20138;-83
2023/06/10 05:22:54;;;;;;;12.87;11.40;;;;;;;19.16;72.60;101292.31;4962436;28;20034;-83
2023/06/10 05:25:20;;;;;;;12.20;10.97;;;;;;;19.20;72.62;101290.72;4996423;28;20035;-83
2023/06/10 05:27:45;;;;;;;13.77;11.50;;;;;;;19.23;71.28;101290.19;4994753;28;20281;-85
2023/06/10 05:30:11;;;;;;;16.13;11.40;;;;;;;19.26;71.09;101286.91;4978656;28;20474;-87
2023/06/10 05:32:36;;;;;;;14.00;10.85;;;;;;;19.34;71.92;101291.13;4978524;28;20034;-86
2023/06/10 05:35:03;;;;;;;15.87;11.07;;;;;;;19.38;70.70;101289.47;4979630;28;20044;-86
2023/06/10 05:37:29;;;;;;;16.27;10.43;;;;;;;19.47;70.40;101298.06;4978720;28;20096;-87
2023/06/10 05:39:55;;;;;;;14.80;10.87;;;;;;;19.51;70.46;101296.44;4994526;28;20026;-87
2023/06/10 05:42:20;;;;;;;13.65;11.38;;;;;;;19.55;70.55;101294.00;4995950;28;20072;-87
2023/06/10 05:44:46;;;;;;;13.87;10.57;;;;;;;19.60;70.17;101285.78;4994560;28;20027;-88
2023/06/10 05:47:11;;;;;;;14.33;10.70;;;;;;;19.68;69.19;101293.53;4994803;28;20466;-86
2023/06/10 05:49:36;;;;;;;13.50;10.88;;;;;;;19.72;69.47;101286.38;4977974;28;20069;-86
2023/06/10 05:52:02;;;;;;;15.87;10.73;;;;;;;19.80;69.11;101293.38;4994564;28;20470;-90
2023/06/10 05:54:27;;;;;;;17.37;11.13;;;;;;;19.86;69.05;101292.28;4994432;28;20038;-91
2023/06/10 05:56:53;;;;;;;15.73;10.97;;;;;;;19.92;68.88;101298.66;4978434;28;20475;-87
2023/06/10 05:59:22;;;;;;;15.07;10.07;;;;;;;19.99;68.21;101293.75;4977623;28;20084;-86
2023/06/10 06:01:51;;;;;;;14.75;10.63;;;;;;;20.05;68.60;101300.09;4995436;28;20031;-85
2023/06/10 06:04:16;;;;;;;16.57;9.90;;;;;;;20.11;67.81;101302.59;4978011;28;20042;-85
2023/06/10 06:06:45;;;;;;;14.05;10.40;;;;;;;20.20;67.63;101296.59;4977471;28;20394;-86
2023/06/10 06:09:10;;;;;;;15.47;11.07;;;;;;;20.30;66.72;101302.97;4978322;28;20054;-85
2023/06/10 06:11:35;;;;;;;14.98;9.88;;;;;;;20.37;66.50;101297.19;4995157;28;20048;-85
2023/06/10 06:14:04;;;;;;;12.23;10.07;;;;;;;20.44;66.59;101302.44;4977676;28;20041;-85
2023/06/10 06:16:29;;;;;;;17.38;11.00;;;;;;;20.47;66.29;101294.47;4994870;28;20058;-86
2023/06/10 06:18:55;;;;;;;16.07;9.93;;;;;;;20.60;65.27;101297.81;4977394;28;20112;-85
2023/06/10 06:21:20;;;;;;;13.80;10.33;;;;;;;20.67;65.48;101301.19;4993980;28;20459;-86
2023/06/10 06:23:51;;;;;;;18.67;10.07;;;;;;;;;;4961580;28;20407;-86
2023/06/10 06:26:20;;;;;;;12.57;9.65;;;;;;;20.81;64.58;101302.28;4993990;28;20031;-85
2023/06/10 06:28:46;;;;;;;12.68;9.18;;;;;;;20.89;64.75;101300.09;4994879;28;20520;-85
2023/06/10 06:31:11;;;;;;;13.57;9.77;;;;;;;20.92;64.76;101305.06;4993179;28;20028;-85
2023/06/10 06:33:36;;;;;;;14.87;9.47;;;;;;;21.01;63.86;101307.00;4993633;28;20034;-85
2023/06/10 06:36:02;;;;;;;14.90;9.75;;;;;;;21.10;63.32;101304.53;4993510;28;20048;-85
2023/06/10 06:38:28;;;;;;;14.87;9.97;;;;;;;21.26;62.25;101310.03;4993864;28;20034;-86
2023/06/10 06:40:54;;;;;;;16.03;9.63;;;;;;;21.33;62.21;101302.31;4976980;28;20479;-85
2023/06/10 06:43:19;;;;;;;14.88;9.68;;;;;;;21.38;62.06;101307.84;4993313;28;20062;-86
2023/06/10 06:45:47;;;;;;;13.60;9.50;;;;;;;21.49;61.65;101303.13;4993941;28;20407;-84
2023/06/10 06:48:13;;;;;;;17.10;9.95;;;;;;;21.56;60.93;101314.75;4977427;28;20398;-84
2023/06/10 06:50:38;;;;;;;18.63;8.70;;;;;;;21.60;61.49;101315.84;4976945;28;20034;-84
2023/06/10 06:53:04;;;;;;;12.93;9.55;;;;;;;21.60;61.05;101317.78;4994459;28;20026;-84
2023/06/10 06:55:30;;;;;;;18.40;9.90;;;;;;;21.59;60.63;101313.38;4960688;28;20498;-84
2023/06/10 06:57:55;;;;;;;12.70;9.20;;;;;;;21.62;61.43;101312.81;4994115;28;20475;-84
2023/06/10 07:00:21;;;;;;;14.93;9.07;;;;;;;21.66;61.11;101311.16;4994301;28;20057;-84
2023/06/10 07:02:47;;;;;;;11.55;8.80;;;;;;;21.68;59.75;101311.69;4993343;28;20026;-84
2023/06/10 07:05:12;;;;;;;12.60;9.00;;;;;;;21.77;59.92;101314.72;4976676;28;20133;-84
2023/06/10 07:07:38;;;;;;;14.90;8.23;;;;;;;21.86;59.20;101313.03;4992754;28;20078;-84
2023/06/10 07:10:03;;;;;;;13.82;9.10;;;;;;;21.90;60.03;101322.41;4994290;28;20037;-84
2023/06/10 07:12:29;;;;;;;14.53;8.43;;;;;;;21.97;59.44;101316.56;4993002;28;20054;-84
2023/06/10 07:14:54;;;;;;;13.70;8.00;;;;;;;22.03;58.85;101321.81;4977018;28;20471;-84
2023/06/10 07:17:20;;;;;;;13.98;8.77;;;;;;;22.06;58.37;101318.50;4976808;28;20082;-84
2023/06/10 07:19:46;;;;;;;11.70;8.07;;;;;;;22.13;57.27;101322.88;4976761;28;20061;-84
2023/06/10 07:22:11;;;;;;;14.10;8.38;;;;;;;22.19;58.43;101332.81;4993692;28;20027;-87
2023/06/10 07:24:37;;;;;;;10.90;8.37;;;;;;;22.25;56.85;101328.94;4993178;28;20490;-86
2023/06/10 07:27:02;;;;;;;12.93;7.83;;;;;;;22.31;56.83;101324.19;4992516;28;20030;-86
2023/06/10 07:29:30;;;;;;;10.95;8.27;;;;;;;22.39;56.91;101334.69;4993812;28;20038;-87
2023/06/10 07:31:56;;;;;;;15.63;8.35;;;;;;;22.47;57.23;101328.59;4992966;28;20033;-87
2023/06/10 07:34:21;;;;;;;12.37;8.13;;;;;;;22.55;56.02;101325.22;4992713;28;20022;-87
2023/06/10 07:36:47;;;;;;;10.53;8.13;;;;;;;22.61;55.66;101326.03;4992689;28;20402;-87
2023/06/10 07:39:12;;;;;;;11.07;7.37;;;;;;;22.69;55.48;101328.19;4976294;28;20038;-87
2023/06/10 07:41:38;;;;;;;13.98;8.02;;;;;;;22.74;56.04;101330.91;4993784;28;20393;-87
2023/06/10 07:44:06;;;;;;;13.43;8.43;;;;;;;22.81;55.65;101333.38;4963808;28;20036;-87
2023/06/10 07:46:31;;;;;;;14.40;7.85;;;;;;;22.89;54.18;101334.72;4980269;28;20066;-86
2023/06/10 07:48:56;;;;;;;12.10;7.27;;;;;;;22.97;54.78;101333.25;4996642;28;20062;-87
2023/06/10 07:51:22;;;;;;;9.90;8.07;;;;;;;23.04;54.77;101331.00;4980233;28;20039;-87
2023/06/10 07:53:47;;;;;;;11.67;7.50;;;;;;;23.10;53.46;101338.19;4979904;28;20030;-87
2023/06/10 07:56:13;;;;;;;13.50;7.40;;;;;;;23.14;52.41;101333.72;4996150;28;20031;-87
2023/06/10 07:58:41;;;;;;;13.18;6.90;;;;;;;23.21;51.89;101333.38;4995889;28;20070;-86
2023/06/10 08:01:08;;;;;;;11.90;7.05;;;;;;;23.28;51.79;101333.88;4997524;28;20034;-86
2023/06/10 08:03:36;;;;;;;8.83;6.73;;;;;;;23.34;51.52;101332.75;4980486;28;20075;-87
2023/06/10 08:06:02;;;;;;;13.77;7.28;;;;;;;23.39;50.62;101332.69;4996301;28;20034;-85
2023/06/10 08:08:27;;;;;;;11.48;7.38;;;;;;;23.44;50.22;101329.88;4995923;28;20505;-85
2023/06/10 08:10:56;;;;;;;9.63;6.77;;;;;;;23.53;50.17;101323.69;4979962;28;20449;-86
2023/06/10 08:13:23;;;;;;;10.68;7.38;;;;;;;23.64;50.11;101328.03;4979744;28;20050;-86
2023/06/10 08:15:50;;;;;;;12.23;6.60;;;;;;;23.75;49.99;101334.28;4995939;28;20035;-86
2023/06/10 08:18:16;;;;;;;8.57;6.80;;;;;;;23.81;49.79;101331.19;4995642;28;20022;-86
2023/06/10 08:20:44;;;;;;;8.75;6.32;;;;;;;23.88;49.26;101330.84;4996260;28;20034;-85
2023/06/10 08:23:17;;;;;;;11.18;6.72;;;;;;;23.94;48.91;101328.84;4996879;28;20088;-86
2023/06/10 08:25:42;;;;;;;9.53;6.33;;;;;;;24.02;48.80;101327.38;4980106;28;20058;-86
2023/06/10 08:28:11;;;;;;;8.45;7.40;;;;;;;24.14;49.42;101334.16;4996803;28;20102;-86
2023/06/10 08:30:36;;;;;;;10.10;6.63;;;;;;;24.25;48.61;101331.25;4995867;28;20065;-86
2023/06/10 08:33:02;;;;;;;10.07;7.00;;;;;;;24.34;47.99;101333.09;4996098;28;20058;-86
2023/06/10 08:35:30;;;;;;;8.30;6.67;;;;;;;24.44;47.68;101334.88;4996520;28;20052;-86
2023/06/10 08:37:57;;;;;;;10.95;6.47;;;;;;;24.53;47.58;101338.63;4995994;28;20038;-86
2023/06/10 08:40:29;;;;;;;14.25;7.20;;;;;;;24.62;47.28;101329.69;4979522;28;20033;-86
2023/06/10 08:43:12;;;;;;;9.93;6.77;;;;;;;24.74;46.95;101326.47;4995320;28;20487;-86
2023/06/10 08:45:40;;;;;;;12.00;6.22;;;;;;;24.85;46.21;101330.75;4997012;28;20504;-86
2023/06/10 08:48:11;;;;;;;8.32;6.68;;;;;;;25.01;45.83;101339.69;4996259;28;20379;-86
2023/06/10 08:50:44;;;;;;;9.95;6.78;;;;;;;25.08;45.83;101331.78;4995776;28;20152;-86
2023/06/10 08:53:17;;;;;;;7.40;6.38;;;;;;;25.18;45.51;101328.00;4995005;28;20455;-86
2023/06/10 08:55:55;;;;;;;7.10;6.20;;;;;;;25.30;44.82;101328.38;4995730;28;20383;-86
2023/06/10 08:58:23;;;;;;;9.15;6.55;;;;;;;25.35;44.78;101335.84;4995477;28;20501;-86
2023/06/10 09:00:55;;;;;;;10.52;6.28;;;;;;;25.38;44.46;101341.59;4979370;28;20042;-86
2023/06/10 09:03:21;;;;;;;7.03;6.32;;;;;;;25.47;43.78;101327.00;4996325;28;20041;-86
2023/06/10 09:05:48;;;;;;;9.82;6.78;;;;;;;25.52;43.63;101329.69;4995709;28;20080;-86
2023/06/10 09:08:15;;;;;;;13.67;6.33;;;;;;;25.64;44.00;101327.22;4994751;28;20046;-87
2023/06/10 09:10:47;;;;;;;8.13;5.63;;;;;;;25.76;43.50;101326.72;4995970;28;20038;-87
2023/06/10 09:13:15;;;;;;;10.45;6.68;;;;;;;25.96;43.35;101324.72;4978436;28;20081;-84
2023/06/10 09:15:41;;;;;;;11.05;6.22;;;;;;;26.13;42.05;101327.72;4979080;28;20026;-84
2023/06/10 09:18:07;;;;;;;10.45;6.40;;;;;;;26.24;41.73;101323.59;4995098;28;20042;-84
2023/06/10 09:20:32;;;;;;;7.37;6.17;;;;;;;26.40;41.57;101323.28;4994644;28;20085;-85
2023/06/10 09:22:59;;;;;;;7.87;5.93;;;;;;;26.52;41.63;101322.75;4995129;28;20117;-85
2023/06/10 09:25:37;;;;;;;10.77;6.05;;;;;;;26.63;41.82;101323.31;4994766;28;20057;-84
2023/06/10 09:28:12;;;;;;;10.65;6.75;;;;;;;26.79;40.89;101319.88;4995124;28;20068;-84
2023/06/10 09:30:37;;;;;;;10.50;6.30;;;;;;;26.79;39.22;101319.06;4994988;28;20030;-84
2023/06/10 09:33:10;;;;;;;16.43;6.63;;;;;;;26.90;40.08;101328.00;4994360;28;20026;-84
2023/06/10 09:35:36;;;;;;;10.55;6.32;;;;;;;27.06;40.20;101320.09;4994745;28;20117;-84
2023/06/10 09:38:02;;;;;;;8.77;6.13;;;;;;;27.20;40.41;101320.06;4994534;28;20451;-84
2023/06/10 09:40:28;;;;;;;9.55;6.35;;;;;;;27.38;38.18;101321.00;4993898;28;20080;-84
2023/06/10 09:42:59;;;;;;;7.37;6.20;;;;;;;27.46;38.88;101321.06;4994798;28;20411;-84
2023/06/10 09:45:31;;;;;;;12.15;6.40;;;;;;;27.59;39.06;101327.72;4994423;28;20030;-84
2023/06/10 09:47:56;;;;;;;8.20;6.30;;;;;;;27.79;38.92;101320.72;4995305;28;20042;-84
2023/06/10 09:50:22;;;;;;;10.50;5.90;;;;;;;27.92;38.81;101332.09;4994244;28;20034;-84
2023/06/10 09:52:48;;;;;;;12.43;6.77;;;;;;;28.03;38.09;101319.53;4994178;28;20073;-84
2023/06/10 09:55:14;;;;;;;7.57;6.37;;;;;;;28.13;37.83;101321.22;4962220;28;20277;-84
2023/06/10 09:57:41;;;;;;;11.20;6.60;;;;;;;28.26;37.55;101317.47;4978206;28;20482;-84
2023/06/10 10:00:09;;;;;;;12.85;6.53;;;;;;;28.29;36.86;101316.03;4995055;28;20062;-84
2023/06/10 10:02:48;;;;;;;7.07;6.38;;;;;;;28.51;37.67;101310.31;4994142;28;20046;-85
2023/06/10 10:05:15;;;;;;;7.80;6.10;;;;;;;28.61;36.69;101309.22;4994012;28;20030;-84
2023/06/10 10:07:41;;;;;;;7.53;6.10;;;;;;;28.74;35.70;101306.56;4994562;28;20111;-85
2023/06/10 10:10:08;;;;;;;9.65;6.13;;;;;;;28.85;36.02;101313.47;4978266;28;20482;-84
2023/06/10 10:12:36;;;;;;;8.85;6.18;;;;;;;29.09;35.61;101307.38;4994257;28;20038;-84
2023/06/10 10:15:02;;;;;;;9.88;5.75;;;;;;;29.16;34.17;101304.09;4993688;28;20502;-84
2023/06/10 10:17:29;;;;;;;13.10;6.07;;;;;;;29.30;34.15;101298.31;4994052;28;20070;-84
2023/06/10 10:19:59;;;;;;;8.38;6.10;;;;;;;29.43;34.84;101294.50;4994929;28;20030;-84
2023/06/10 10:22:26;;;;;;;10.68;6.13;;;;;;;29.55;34.17;101300.22;4993419;28;20124;-84
2023/06/10 10:25:29;;;;;;;8.25;5.72;;;;;;;29.81;34.69;101301.25;4977424;28;20038;-84
2023/06/10 10:28:34;;;;;;;11.25;6.30;;;;;;;29.98;34.20;101297.59;4963551;28;20045;-84
2023/06/10 10:31:08;;;;;;;8.53;6.07;;;;;;;30.10;32.80;101294.91;4954560;28;20533;-84
2023/06/10 10:33:42;;;;;;;8.30;5.78;;;;;;;30.33;32.31;101301.00;4993886;28;20073;-85
2023/06/10 10:36:08;;;;;;;8.65;6.00;;;;;;;30.54;32.44;101297.44;4994237;28;20034;-84
2023/06/10 10:38:35;;;;;;;8.07;5.78;;;;;;;30.77;32.40;101293.13;4961266;28;20027;-85
2023/06/10 10:41:01;;;;;;;8.10;6.20;;;;;;;30.82;31.67;101294.09;4993706;28;20076;-85
2023/06/10 10:43:28;;;;;;;6.90;5.70;;;;;;;31.06;32.04;101288.59;4976875;28;20486;-85
2023/06/10 10:46:01;;;;;;;10.75;6.30;;;;;;;31.33;32.04;101288.31;4993353;28;20034;-84
2023/06/10 10:48:33;;;;;;;10.68;6.35;;;;;;;31.49;30.19;101292.09;4961766;28;20096;-85
2023/06/10 10:50:58;;;;;;;9.80;6.25;;;;;;;31.68;30.64;101294.38;4994535;28;20034;-85
2023/06/10 10:53:25;;;;;;;10.30;6.10;;;;;;;31.79;30.87;101281.53;4976826;28;20053;-85
2023/06/10 10:56:11;;;;;;;7.72;6.30;;;;;;;32.00;30.89;101289.81;4993204;28;20022;-85
2023/06/10 10:58:36;;;;;;;9.47;6.20;;;;;;;32.22;30.04;101286.91;4978158;28;20069;-85
2023/06/10 11:01:23;;;;;;;7.75;6.18;;;;;;;32.49;30.82;101283.31;4977754;28;20073;-85
2023/06/10 11:03:49;;;;;;;12.95;6.28;;;;;;;32.66;29.34;101273.00;4993431;28;20022;-85
2023/06/10 11:06:15;;;;;;;8.50;6.33;;;;;;;32.97;28.91;101279.91;4993375;28;20528;-85
2023/06/10 11:08:41;;;;;;;9.43;6.20;;;;;;;33.16;27.76;101279.22;4993853;28;20065;-84
2023/06/10 11:11:22;;;;;;;8.67;6.37;;;;;;;33.53;28.29;101282.66;4993659;28;20378;-84
2023/06/10 11:14:06;;;;;;;10.63;6.05;;;;;;;33.85;28.06;101281.84;4993588;28;20386;-85
2023/06/10 11:16:43;;;;;;;11.68;6.40;;;;;;;34.25;27.18;101272.31;4992906;28;20088;-85
2023/06/10 11:19:09;;;;;;;8.05;6.00;;;;;;;35.29;25.14;101262.41;4976518;28;20027;-85